Terminal Aerodrome Forecast
Issued by NWS Charleston, WV

Current Version | Previous Version | Text Only | Print | Product List | Glossary Off
Versions: 1 2 3 4 5 6 7 8 9 10 11 12 13 14 15 16 17 18 19 20 21 22 23

009
FTUS41 KRLX 100911 AAA
TAFHTS
TAF AMD
KHTS 100911Z 1009/1106 25009KT 5SM -SHSN OVC025
     FM101000 24008KT P6SM -SHSN BKN025 OVC035
     FM101700 26009KT P6SM OVC035
     FM110200 26009KT P6SM BKN025=

USA.gov is the U.S. government's official web portal to all federal, state and local government web resources and services.